createdAt,value
2023-04-16T00:02:16.718Z,3.40
2023-04-16T00:04:43.955Z,3.67
2023-04-16T00:07:11.146Z,3.60
2023-04-16T00:09:38.316Z,3.85
2023-04-16T00:12:06.386Z,3.25
2023-04-16T00:14:33.636Z,4.00
2023-04-16T00:17:01.138Z,4.03
2023-04-16T00:19:28.255Z,4.15
2023-04-16T00:21:55.664Z,4.28
2023-04-16T00:24:23.033Z,4.13
2023-04-16T00:26:50.030Z,3.92
2023-04-16T00:29:17.045Z,3.15
2023-04-16T00:31:44.167Z,3.35
2023-04-16T00:34:11.347Z,4.25
2023-04-16T00:36:38.793Z,4.25
2023-04-16T00:39:05.899Z,3.65
2023-04-16T00:41:33.004Z,3.67
2023-04-16T00:44:00.177Z,4.05
2023-04-16T00:46:27.935Z,4.45
2023-04-16T00:48:56.461Z,5.00
2023-04-16T00:51:23.990Z,4.20
2023-04-16T00:53:51.248Z,4.25
2023-04-16T00:56:18.628Z,4.50
2023-04-16T00:58:45.775Z,5.13
2023-04-16T01:01:14.700Z,5.65
2023-04-16T01:03:47.431Z,5.97
2023-04-16T01:06:16.026Z,6.53
2023-04-16T01:08:43.403Z,6.25
2023-04-16T01:11:11.374Z,6.45
2023-04-16T01:13:41.552Z,6.07
2023-04-16T01:16:10.045Z,5.60
2023-04-16T01:18:37.809Z,5.53
2023-04-16T01:21:05.583Z,5.45
2023-04-16T01:23:33.550Z,6.68
2023-04-16T01:26:01.143Z,5.55
2023-04-16T01:28:28.231Z,3.47
2023-04-16T01:30:55.579Z,4.03
2023-04-16T01:33:36.057Z,4.43
2023-04-16T01:36:03.343Z,4.22
2023-04-16T01:38:30.533Z,4.75
2023-04-16T01:40:59.590Z,5.00
2023-04-16T01:43:26.880Z,4.72
2023-04-16T01:46:19.622Z,5.30
2023-04-16T01:48:47.611Z,5.07
2023-04-16T01:51:14.815Z,5.40
2023-04-16T01:53:41.919Z,5.88
2023-04-16T01:56:09.109Z,5.72
2023-04-16T01:58:36.266Z,5.93
2023-04-16T02:01:04.626Z,6.30
2023-04-16T02:03:32.721Z,5.38
2023-04-16T02:06:01.330Z,7.75
2023-04-16T02:08:29.340Z,6.45
2023-04-16T02:10:57.722Z,6.85
2023-04-16T02:13:26.329Z,6.18
2023-04-16T02:15:53.857Z,6.82
2023-04-16T02:18:50.485Z,4.30
2023-04-16T02:21:20.431Z,6.40
2023-04-16T02:23:51.815Z,5.03
2023-04-16T02:26:23.635Z,4.65
2023-04-16T02:28:51.246Z,4.32
2023-04-16T02:33:49.848Z,4.65
2023-04-16T02:36:17.069Z,5.90
2023-04-16T02:38:44.241Z,5.07
2023-04-16T02:41:11.554Z,3.92
2023-04-16T02:43:38.606Z,5.03
2023-04-16T02:46:06.168Z,4.22
2023-04-16T02:48:33.406Z,4.03
2023-04-16T02:51:00.911Z,4.20
2023-04-16T02:53:28.088Z,3.78
2023-04-16T02:55:56.052Z,2.97
2023-04-16T02:58:25.129Z,3.78
2023-04-16T03:00:53.877Z,4.25
2023-04-16T03:03:21.545Z,3.92
2023-04-16T03:05:48.800Z,4.05
2023-04-16T03:08:17.196Z,3.65
2023-04-16T03:10:44.676Z,4.43
2023-04-16T03:13:12.223Z,3.63
2023-04-16T03:15:39.293Z,3.72
2023-04-16T03:18:06.608Z,3.97
2023-04-16T03:20:34.004Z,4.32
2023-04-16T03:23:01.450Z,3.60
2023-04-16T03:25:28.506Z,3.20
2023-04-16T03:27:56.836Z,3.30
2023-04-16T03:30:24.435Z,2.75
2023-04-16T03:32:52.198Z,3.15
2023-04-16T03:35:19.672Z,4.07
2023-04-16T03:37:46.792Z,3.80
2023-04-16T03:40:14.192Z,3.95
2023-04-16T03:42:41.802Z,4.35
2023-04-16T03:45:09.649Z,3.55
2023-04-16T03:47:38.274Z,3.47
2023-04-16T03:50:05.805Z,3.15
2023-04-16T03:52:32.953Z,3.72
2023-04-16T03:54:59.997Z,4.97
2023-04-16T03:57:33.315Z,5.38
2023-04-16T04:00:06.986Z,3.80
2023-04-16T04:02:57.267Z,2.72
2023-04-16T04:05:24.780Z,4.45
2023-04-16T04:07:52.669Z,4.70
2023-04-16T04:10:19.891Z,5.55
2023-04-16T04:12:47.332Z,4.57
2023-04-16T04:15:14.536Z,5.13
2023-04-16T04:17:43.063Z,5.50
2023-04-16T04:20:11.036Z,5.85
2023-04-16T04:22:38.220Z,6.05
2023-04-16T04:25:05.749Z,4.45
2023-04-16T04:27:33.478Z,4.88
2023-04-16T04:30:00.598Z,4.65
2023-04-16T04:32:28.185Z,4.40
2023-04-16T04:34:55.273Z,3.85
2023-04-16T04:37:22.593Z,4.15
2023-04-16T04:39:49.618Z,4.38
2023-04-16T04:42:18.829Z,4.05
2023-04-16T04:44:46.262Z,4.43
2023-04-16T04:47:14.966Z,4.40
2023-04-16T04:49:42.154Z,3.90
2023-04-16T04:52:09.474Z,4.45
2023-04-16T04:54:37.026Z,3.92
2023-04-16T04:57:05.512Z,4.00
2023-04-16T04:59:33.008Z,3.40
2023-04-16T05:02:00.793Z,3.15
2023-04-16T05:04:27.822Z,3.28
2023-04-16T05:06:55.299Z,3.60
2023-04-16T05:09:22.586Z,3.40
2023-04-16T05:11:49.774Z,3.20
2023-04-16T05:14:17.182Z,3.47
2023-04-16T05:16:44.491Z,3.30
2023-04-16T05:19:12.023Z,3.78
2023-04-16T05:21:39.372Z,4.70
2023-04-16T05:24:06.845Z,3.20
2023-04-16T05:26:33.939Z,3.22
2023-04-16T05:29:01.216Z,3.22
2023-04-16T05:31:28.580Z,3.45
2023-04-16T05:33:55.752Z,2.88
2023-04-16T05:36:23.090Z,3.50
2023-04-16T05:38:50.284Z,3.17
2023-04-16T05:41:17.476Z,3.22
2023-04-16T05:43:49.033Z,3.38
2023-04-16T05:46:16.239Z,2.97
2023-04-16T05:48:43.784Z,3.75
2023-04-16T05:51:11.234Z,2.88
2023-04-16T05:53:38.530Z,2.92
2023-04-16T05:56:06.062Z,3.13
2023-04-16T05:58:34.085Z,3.25
2023-04-16T06:01:01.602Z,2.97
2023-04-16T06:03:28.971Z,3.55
2023-04-16T06:05:56.130Z,3.20
2023-04-16T06:08:25.052Z,2.80
2023-04-16T06:10:52.233Z,4.63
2023-04-16T06:13:22.161Z,3.33
2023-04-16T06:15:49.502Z,3.17
2023-04-16T06:18:16.502Z,2.80
2023-04-16T06:20:43.762Z,3.10
2023-04-16T06:23:11.075Z,3.20
2023-04-16T06:25:38.265Z,3.08
2023-04-16T06:28:05.791Z,2.97
2023-04-16T06:30:33.497Z,3.60
2023-04-16T06:33:01.124Z,3.15
2023-04-16T06:35:28.429Z,3.08
2023-04-16T06:37:55.741Z,3.22
2023-04-16T06:40:23.016Z,3.10
2023-04-16T06:42:50.591Z,3.13
2023-04-16T06:45:18.124Z,3.63
2023-04-16T06:47:45.257Z,2.78
2023-04-16T06:50:12.439Z,2.55
2023-04-16T06:52:39.597Z,10.90
2023-04-16T06:55:09.765Z,3.13
2023-04-16T06:57:37.754Z,3.08
2023-04-16T07:00:05.554Z,3.20
2023-04-16T07:02:32.981Z,2.90
2023-04-16T07:05:00.712Z,2.83
2023-04-16T07:07:27.798Z,3.08
2023-04-16T07:09:54.912Z,2.97
2023-04-16T07:12:22.952Z,2.85
2023-04-16T07:14:51.189Z,4.28
2023-04-16T07:17:18.328Z,3.50
2023-04-16T07:19:45.670Z,3.80
2023-04-16T07:22:12.817Z,5.75
2023-04-16T07:24:39.983Z,2.78
2023-04-16T07:27:07.123Z,2.72
2023-04-16T07:29:37.372Z,2.72
2023-04-16T07:32:05.597Z,2.95
2023-04-16T07:34:32.712Z,2.67
2023-04-16T07:36:59.883Z,3.03
2023-04-16T07:39:27.028Z,3.03
2023-04-16T07:41:54.118Z,2.88
2023-04-16T07:44:25.660Z,2.78
2023-04-16T07:46:55.761Z,3.10
2023-04-16T07:49:23.998Z,3.20
2023-04-16T07:51:51.056Z,3.00
2023-04-16T07:54:21.046Z,2.67
2023-04-16T07:56:51.037Z,2.88
2023-04-16T07:59:22.817Z,3.00
2023-04-16T08:01:52.634Z,3.25
2023-04-16T08:04:26.581Z,3.00
2023-04-16T08:06:54.657Z,3.50
2023-04-16T08:09:24.084Z,3.45
2023-04-16T08:14:53.537Z,8.07
2023-04-16T08:17:20.709Z,3.25
2023-04-16T08:19:48.002Z,3.58
2023-04-16T08:22:15.186Z,2.97
2023-04-16T08:24:42.426Z,3.22
2023-04-16T08:27:18.421Z,3.65
2023-04-16T08:29:52.593Z,3.00
2023-04-16T08:32:19.911Z,3.45
2023-04-16T08:34:47.090Z,3.53
2023-04-16T08:37:14.302Z,3.65
2023-04-16T08:39:41.592Z,3.58
2023-04-16T08:42:18.234Z,3.70
2023-04-16T08:44:49.475Z,3.60
2023-04-16T08:47:16.852Z,3.08
2023-04-16T08:49:46.224Z,2.75
2023-04-16T08:52:20.469Z,3.17
2023-04-16T08:55:02.711Z,3.17
2023-04-16T08:57:41.064Z,4.22
2023-04-16T09:00:09.759Z,3.13
2023-04-16T09:02:37.507Z,3.50
2023-04-16T09:05:07.728Z,3.00
2023-04-16T09:07:35.645Z,3.25
2023-04-16T09:10:03.783Z,3.40
2023-04-16T09:12:33.432Z,2.80
2023-04-16T09:15:03.549Z,2.27
2023-04-16T09:17:34.996Z,2.88
2023-04-16T09:20:04.917Z,2.83
2023-04-16T09:22:32.835Z,3.38
2023-04-16T09:24:59.951Z,4.35
2023-04-16T09:27:42.082Z,2.90
2023-04-16T09:30:41.274Z,2.70
2023-04-16T09:33:22.933Z,3.30
2023-04-16T09:35:52.928Z,2.75
2023-04-16T09:38:20.774Z,3.15
2023-04-16T09:40:48.012Z,2.60
2023-04-16T09:43:17.991Z,2.85
2023-04-16T09:45:50.272Z,3.38
2023-04-16T09:48:29.358Z,3.30
2023-04-16T09:50:57.241Z,2.60
2023-04-16T09:53:29.215Z,3.40
2023-04-16T09:56:02.393Z,3.35
2023-04-16T09:58:29.863Z,3.40
2023-04-16T10:01:11.505Z,2.33
2023-04-16T10:03:40.696Z,2.80
2023-04-16T10:06:15.309Z,2.58
2023-04-16T10:08:53.498Z,2.65
2023-04-16T10:11:49.684Z,2.70
2023-04-16T10:14:23.114Z,2.92
2023-04-16T10:17:21.566Z,2.80
2023-04-16T10:20:07.003Z,2.60
2023-04-16T10:22:49.198Z,2.90
2023-04-16T10:25:37.810Z,5.22
2023-04-16T10:28:08.023Z,2.42
2023-04-16T10:30:55.519Z,2.88
2023-04-16T10:33:34.440Z,2.47
2023-04-16T10:36:31.686Z,2.72
2023-04-16T10:39:17.150Z,3.15
2023-04-16T10:41:47.947Z,2.53
2023-04-16T10:44:30.241Z,2.78
2023-04-16T10:47:01.025Z,2.78
2023-04-16T10:49:28.368Z,3.00
2023-04-16T10:52:17.559Z,3.25
2023-04-16T10:54:52.690Z,3.10
2023-04-16T10:57:25.395Z,3.00
2023-04-16T11:02:29.297Z,3.03
2023-04-16T11:04:58.153Z,2.35
2023-04-16T11:07:35.362Z,2.80
2023-04-16T11:10:13.492Z,3.00
2023-04-16T11:12:46.050Z,2.90
2023-04-16T11:15:20.073Z,3.03
2023-04-16T11:17:52.290Z,2.83
2023-04-16T11:20:21.038Z,2.85
2023-04-16T11:22:50.827Z,2.85
2023-04-16T11:25:26.523Z,4.00
2023-04-16T11:27:54.995Z,3.00
2023-04-16T11:30:49.031Z,3.00
2023-04-16T11:33:16.714Z,2.85
2023-04-16T11:35:46.050Z,2.88
2023-04-16T11:38:13.293Z,2.95
2023-04-16T11:40:43.085Z,3.05
2023-04-16T11:45:56.623Z,3.25
2023-04-16T11:48:23.829Z,2.78
2023-04-16T11:50:58.152Z,2.90
2023-04-16T11:53:25.382Z,2.90
2023-04-16T11:55:52.478Z,3.28
2023-04-16T11:58:20.397Z,3.15
2023-04-16T12:00:53.484Z,3.00
2023-04-16T12:03:38.442Z,3.15
2023-04-16T12:06:09.926Z,3.47
2023-04-16T12:08:37.324Z,2.80
2023-04-16T12:11:04.818Z,3.08
2023-04-16T12:13:39.882Z,3.30
2023-04-16T12:16:18.607Z,3.20
2023-04-16T12:19:04.142Z,3.03
2023-04-16T12:21:43.066Z,2.80
2023-04-16T12:24:13.712Z,2.30
2023-04-16T12:26:46.656Z,2.85
2023-04-16T12:29:22.391Z,3.00
2023-04-16T12:31:50.977Z,2.90
2023-04-16T12:34:20.054Z,3.30
2023-04-16T12:36:48.705Z,3.03
2023-04-16T12:39:16.349Z,3.00
2023-04-16T12:41:44.679Z,3.10
2023-04-16T12:44:16.708Z,2.45
2023-04-16T12:46:45.207Z,3.42
2023-04-16T12:49:12.751Z,3.30
2023-04-16T12:51:40.190Z,3.28
2023-04-16T12:54:07.716Z,3.10
2023-04-16T12:59:47.212Z,3.95
2023-04-16T13:02:14.367Z,4.15
2023-04-16T13:04:41.599Z,3.28
2023-04-16T13:07:08.818Z,2.90
2023-04-16T13:09:37.760Z,3.10
2023-04-16T13:12:06.780Z,3.15
2023-04-16T13:14:33.909Z,2.67
2023-04-16T13:17:01.465Z,3.78
2023-04-16T13:19:28.782Z,3.50
2023-04-16T13:21:56.048Z,3.55
2023-04-16T13:24:23.848Z,3.10
2023-04-16T13:26:53.865Z,3.00
2023-04-16T13:29:20.971Z,2.72
2023-04-16T13:31:48.533Z,2.90
2023-04-16T13:34:20.445Z,3.20
2023-04-16T13:36:47.927Z,3.22
2023-04-16T13:39:15.814Z,3.55
2023-04-16T13:41:43.468Z,3.40
2023-04-16T13:44:10.675Z,4.47
2023-04-16T13:46:37.721Z,3.30
2023-04-16T13:49:04.948Z,3.60
2023-04-16T13:51:32.227Z,6.30
2023-04-16T13:53:59.509Z,4.35
2023-04-16T13:56:26.860Z,4.07
2023-04-16T13:58:54.290Z,4.10
2023-04-16T14:01:21.909Z,13.15
2023-04-16T14:03:49.771Z,4.13
2023-04-16T14:06:18.238Z,4.40
2023-04-16T14:08:46.017Z,4.13
2023-04-16T14:11:13.164Z,4.72
2023-04-16T14:13:40.621Z,4.18
2023-04-16T14:16:07.894Z,4.28
2023-04-16T14:18:35.911Z,3.90
2023-04-16T14:21:03.136Z,4.20
2023-04-16T14:23:30.350Z,3.38
2023-04-16T14:25:57.627Z,3.60
2023-04-16T14:28:25.122Z,4.03
2023-04-16T14:30:52.524Z,3.70
2023-04-16T14:33:19.874Z,3.90
2023-04-16T14:35:47.048Z,3.92
2023-04-16T14:38:14.339Z,3.35
2023-04-16T14:40:41.664Z,3.88
2023-04-16T14:43:08.845Z,6.55
2023-04-16T14:45:39.235Z,4.40
2023-04-16T14:48:06.932Z,3.50
2023-04-16T14:50:38.233Z,4.80
2023-04-16T14:53:06.059Z,3.50
2023-04-16T14:55:33.283Z,3.78
2023-04-16T14:58:00.672Z,3.60
2023-04-16T15:00:28.238Z,4.03
2023-04-16T15:02:55.846Z,4.68
2023-04-16T15:05:29.272Z,3.90
2023-04-16T15:08:00.694Z,3.72
2023-04-16T15:10:28.660Z,3.30
2023-04-16T15:12:55.894Z,3.38
2023-04-16T15:15:22.934Z,3.17
2023-04-16T15:17:51.223Z,3.60
2023-04-16T15:20:18.775Z,3.47
2023-04-16T15:22:46.373Z,9.07
2023-04-16T15:25:14.615Z,3.20
2023-04-16T15:27:41.795Z,3.70
2023-04-16T15:30:09.456Z,3.22
2023-04-16T15:32:36.888Z,3.45
2023-04-16T15:35:05.092Z,3.67
2023-04-16T15:37:32.248Z,3.47
2023-04-16T15:39:59.482Z,3.60
2023-04-16T15:42:26.735Z,4.38
2023-04-16T15:44:53.905Z,3.70
2023-04-16T15:47:21.080Z,3.80
2023-04-16T15:49:48.255Z,4.47
2023-04-16T15:52:18.670Z,5.75
2023-04-16T15:57:12.949Z,8.38
2023-04-16T15:59:40.066Z,7.70
2023-04-16T16:02:09.490Z,4.90
2023-04-16T16:04:36.753Z,7.20
2023-04-16T16:07:04.721Z,5.72
2023-04-16T16:09:31.951Z,6.53
2023-04-16T16:11:59.914Z,4.57
2023-04-16T16:14:27.092Z,5.30
2023-04-16T16:16:54.745Z,4.25
2023-04-16T16:19:24.309Z,4.07
2023-04-16T16:21:51.522Z,4.10
2023-04-16T16:24:18.685Z,4.32
2023-04-16T16:26:45.806Z,4.70
2023-04-16T16:29:13.304Z,5.13
2023-04-16T16:31:40.553Z,4.55
2023-04-16T16:34:07.901Z,4.50
2023-04-16T16:36:37.873Z,4.72
2023-04-16T16:39:05.112Z,4.30
2023-04-16T16:41:32.557Z,4.15
2023-04-16T16:43:59.932Z,4.18
2023-04-16T16:46:27.170Z,5.93
2023-04-16T16:48:54.600Z,6.05
2023-04-16T16:51:21.726Z,4.22
2023-04-16T16:53:48.923Z,4.10
2023-04-16T16:56:16.220Z,7.00
2023-04-16T16:58:43.601Z,4.93
2023-04-16T17:01:10.730Z,4.75
2023-04-16T17:03:37.815Z,4.53
2023-04-16T17:06:11.174Z,5.00
2023-04-16T17:08:38.531Z,5.38
2023-04-16T17:11:05.738Z,4.68
2023-04-16T17:13:32.920Z,4.28
2023-04-16T17:16:00.174Z,5.32
2023-04-16T17:18:28.137Z,4.93
2023-04-16T17:20:55.203Z,4.70
2023-04-16T17:23:25.153Z,5.20
2023-04-16T17:25:52.612Z,5.80
2023-04-16T17:28:21.013Z,6.55
2023-04-16T17:30:56.769Z,9.10
2023-04-16T17:33:50.878Z,11.30
2023-04-16T17:36:19.896Z,8.18
2023-04-16T17:38:46.924Z,7.32
2023-04-16T17:41:14.122Z,6.97
2023-04-16T17:43:41.311Z,6.00
2023-04-16T17:46:11.878Z,6.32
2023-04-16T17:48:38.972Z,5.82
2023-04-16T17:51:11.940Z,9.95
2023-04-16T17:53:39.336Z,5.05
2023-04-16T17:56:06.915Z,6.60
2023-04-16T17:58:35.403Z,6.50
2023-04-16T18:01:03.577Z,5.97
2023-04-16T18:03:32.156Z,5.53
2023-04-16T18:05:59.788Z,5.40
2023-04-16T18:08:27.786Z,5.15
2023-04-16T18:10:55.710Z,5.47
2023-04-16T18:13:24.313Z,5.80
2023-04-16T18:15:51.985Z,5.88
2023-04-16T18:18:20.732Z,6.07
2023-04-16T18:20:48.273Z,6.30
2023-04-16T18:23:15.364Z,6.20
2023-04-16T18:25:42.517Z,6.22
2023-04-16T18:28:09.631Z,6.70
2023-04-16T18:30:40.466Z,6.75
2023-04-16T18:35:57.505Z,6.88
2023-04-16T18:39:02.758Z,6.70
2023-04-16T18:41:27.462Z,7.57
2023-04-16T18:43:54.695Z,8.23
2023-04-16T18:46:22.107Z,7.80
2023-04-16T18:48:49.566Z,8.20
2023-04-16T18:51:16.973Z,8.95
2023-04-16T18:53:45.929Z,9.02
2023-04-16T18:56:13.168Z,8.35
2023-04-16T18:58:40.551Z,8.55
2023-04-16T19:01:11.449Z,8.32
2023-04-16T19:03:39.453Z,8.15
2023-04-16T19:06:07.154Z,7.97
2023-04-16T19:08:37.597Z,8.25
2023-04-16T19:13:32.543Z,7.15
2023-04-16T19:16:01.207Z,7.30
2023-04-16T19:18:28.473Z,7.10
2023-04-16T19:21:00.680Z,5.70
2023-04-16T19:23:29.242Z,8.20
2023-04-16T19:25:57.079Z,7.65
2023-04-16T19:28:25.939Z,6.53
2023-04-16T19:30:54.045Z,8.63
2023-04-16T19:33:21.540Z,6.65
2023-04-16T19:35:49.089Z,6.68
2023-04-16T19:38:18.150Z,6.20
2023-04-16T19:41:12.267Z,6.18
2023-04-16T19:43:39.307Z,6.32
2023-04-16T19:46:06.697Z,6.65
2023-04-16T19:48:34.079Z,6.13
2023-04-16T19:51:03.707Z,8.73
2023-04-16T19:53:30.722Z,6.10
2023-04-16T19:55:57.901Z,5.95
2023-04-16T19:58:25.494Z,6.00
2023-04-16T20:00:56.599Z,6.28
2023-04-16T20:03:23.910Z,5.45
2023-04-16T20:05:51.216Z,6.40
2023-04-16T20:08:18.315Z,6.40
2023-04-16T20:10:45.605Z,6.60
2023-04-16T20:13:13.857Z,6.75
2023-04-16T20:15:41.213Z,6.50
2023-04-16T20:18:09.059Z,6.90
2023-04-16T20:20:37.964Z,6.43
2023-04-16T20:23:14.772Z,7.35
2023-04-16T20:25:49.140Z,6.65
2023-04-16T20:28:18.276Z,6.60
2023-04-16T20:30:45.395Z,6.63
2023-04-16T20:33:12.813Z,7.45
2023-04-16T20:35:40.123Z,7.30
2023-04-16T20:38:07.191Z,6.13
2023-04-16T20:40:38.841Z,7.10
2023-04-16T20:43:10.332Z,8.10
2023-04-16T20:45:41.199Z,8.75
2023-04-16T20:48:10.250Z,7.72
2023-04-16T20:50:38.019Z,5.85
2023-04-16T20:53:05.123Z,7.63
2023-04-16T20:55:32.284Z,7.35
2023-04-16T20:57:59.467Z,7.15
2023-04-16T21:00:27.257Z,7.10
2023-04-16T21:02:54.978Z,6.78
2023-04-16T21:05:24.041Z,6.22
2023-04-16T21:07:52.365Z,6.95
2023-04-16T21:10:20.887Z,6.07
2023-04-16T21:12:49.632Z,6.80
2023-04-16T21:15:16.872Z,6.75
2023-04-16T21:17:43.952Z,6.60
2023-04-16T21:20:13.654Z,7.03
2023-04-16T21:22:41.215Z,6.38
2023-04-16T21:25:08.953Z,6.60
2023-04-16T21:27:38.340Z,17.23
2023-04-16T21:30:05.990Z,6.73
2023-04-16T21:32:33.448Z,6.20
2023-04-16T21:35:01.070Z,6.65
2023-04-16T21:37:28.408Z,6.82
2023-04-16T21:39:55.740Z,6.50
2023-04-16T21:42:22.914Z,6.05
2023-04-16T21:44:50.310Z,6.65
2023-04-16T21:47:19.473Z,16.05
2023-04-16T21:49:46.701Z,11.10
2023-04-16T21:52:18.514Z,5.82
2023-04-16T21:54:46.185Z,6.68
2023-04-16T21:57:13.845Z,7.20
2023-04-16T21:59:41.246Z,6.30
2023-04-16T22:02:08.546Z,6.85
2023-04-16T22:04:39.528Z,7.15
2023-04-16T22:07:11.925Z,5.95
2023-04-16T22:09:40.556Z,6.93
2023-04-16T22:12:10.633Z,6.63
2023-04-16T22:14:44.047Z,7.05
2023-04-16T22:17:17.359Z,6.20
2023-04-16T22:19:44.851Z,6.15
2023-04-16T22:22:12.208Z,4.45
2023-04-16T22:24:39.403Z,6.40
2023-04-16T22:27:06.909Z,5.70
2023-04-16T22:29:34.223Z,6.40
2023-04-16T22:32:02.104Z,4.55
2023-04-16T22:34:29.402Z,6.45
2023-04-16T22:36:56.535Z,6.18
2023-04-16T22:39:23.677Z,5.55
2023-04-16T22:41:50.769Z,6.30
2023-04-16T22:44:17.892Z,4.88
2023-04-16T22:46:45.114Z,5.93
2023-04-16T22:49:12.374Z,5.90
2023-04-16T22:51:40.448Z,6.50
2023-04-16T22:54:08.081Z,6.28
2023-04-16T22:56:35.346Z,6.28
2023-04-16T22:59:02.450Z,6.88
2023-04-16T23:01:29.618Z,4.18
2023-04-16T23:03:56.904Z,5.93
2023-04-16T23:06:24.232Z,6.65
2023-04-16T23:08:51.440Z,5.03
2023-04-16T23:11:18.475Z,7.00
2023-04-16T23:13:45.849Z,6.72
2023-04-16T23:16:16.234Z,7.40
2023-04-16T23:18:43.442Z,6.63
2023-04-16T23:21:10.708Z,6.95
2023-04-16T23:23:37.749Z,7.35
2023-04-16T23:26:05.213Z,7.45
2023-04-16T23:28:32.400Z,7.15
2023-04-16T23:30:59.638Z,7.72
2023-04-16T23:33:27.382Z,7.38
2023-04-16T23:35:54.593Z,7.65
2023-04-16T23:38:22.029Z,8.32
2023-04-16T23:40:49.236Z,8.73
2023-04-16T23:43:16.992Z,8.00
2023-04-16T23:45:44.314Z,7.20
2023-04-16T23:48:11.781Z,8.50
2023-04-16T23:50:38.950Z,7.53
2023-04-16T23:53:06.525Z,7.00
2023-04-16T23:55:33.607Z,8.25
2023-04-16T23:58:00.732Z,9.82
